Time;durP1;ratioP1;P1;durP2;ratioP2;P2;SDS_P1;SDS_P2;PMS_P1;PMS_P2;Temp;Humidity;BMP_temperature;BMP_pressure;BME280_temperature;BME280_humidity;BME280_pressure;Samples;Min_cycle;Max_cycle;Signal;HPM_P1;HPM_P2
2022/05/29 00:00:52;;;;;;;;;1.00;1.00;;;;;15.12;43.39;101241.09;4998464;28;45339;-49
2022/05/29 00:03:18;;;;;;;;;1.50;1.50;;;;;15.25;43.56;101242.84;4981044;28;45415;-50
2022/05/29 00:05:44;;;;;;;;;0.25;0.25;;;;;14.93;43.35;101196.88;4996948;28;46515;-49
2022/05/29 00:08:14;;;;;;;;;1.00;1.00;;;;;15.17;43.18;101230.22;4997235;28;45484;-50
2022/05/29 00:10:40;;;;;;;;;1.40;1.00;;;;;15.32;42.80;101244.47;4983906;28;45502;-54
2022/05/29 00:13:06;;;;;;;;;1.60;1.60;;;;;15.25;43.56;101237.31;4997762;28;45425;-50
2022/05/29 00:15:31;;;;;;;;;1.75;1.75;;;;;15.17;43.44;101236.56;4998315;28;46424;-49
2022/05/29 00:17:57;;;;;;;;;1.00;1.00;;;;;15.17;43.30;101236.56;4993570;28;45436;-53
2022/05/29 00:20:22;;;;;;;;;1.50;1.50;;;;;15.14;43.64;101237.03;4997740;28;45195;-53
2022/05/29 00:22:48;;;;;;;;;3.75;3.75;;;;;15.15;43.86;101233.19;4996468;28;45831;-49
2022/05/29 00:25:14;;;;;;;;;1.00;1.00;;;;;15.18;43.40;101237.44;4996890;28;46292;-49
2022/05/29 00:27:39;;;;;;;;;1.00;1.00;;;;;15.11;43.78;101237.50;4994918;28;45429;-55
2022/05/29 00:30:06;;;;;;;;;1.50;1.50;;;;;15.06;44.19;101233.75;4979775;28;45303;-51
2022/05/29 00:32:32;;;;;;;;;0.00;0.00;;;;;14.99;44.13;101220.84;4979822;28;45887;-52
2022/05/29 00:34:58;;;;;;;;;1.00;1.00;;;;;15.00;43.61;101227.22;4997874;28;45727;-50
2022/05/29 00:37:24;;;;;;;;;2.25;1.25;;;;;14.90;44.19;101234.09;4998063;28;45533;-52
2022/05/29 00:39:50;;;;;;;;;1.00;1.00;;;;;14.90;44.13;101238.81;4996808;28;45384;-53
2022/05/29 00:42:15;;;;;;;;;3.00;1.00;;;;;14.72;44.50;101221.09;4996790;28;45474;-51
2022/05/29 00:44:42;;;;;;;;;1.25;1.25;;;;;14.76;44.24;101227.91;4996074;28;47533;-52
2022/05/29 00:47:20;;;;;;;;;3.00;2.60;;;;;14.68;44.84;101219.84;4996636;28;45405;-48
2022/05/29 00:49:48;;;;;;;;;1.00;1.00;;;;;14.39;44.79;101197.41;4997753;28;45432;-51
2022/05/29 00:52:19;;;;;;;;;1.80;1.80;;;;;14.61;44.81;101228.22;4996737;28;45538;-51
2022/05/29 00:54:55;;;;;;;;;1.00;1.00;;;;;14.43;45.19;101206.94;4997155;28;45412;-52
2022/05/29 00:57:33;;;;;;;;;1.20;1.20;;;;;14.61;45.25;101236.50;4980538;28;45431;-52
2022/05/29 01:00:23;;;;;;;;;1.60;0.40;;;;;14.45;45.55;101223.25;4997497;28;45283;-49
2022/05/29 01:02:49;;;;;;;;;1.00;1.00;;;;;14.55;45.25;101226.34;4997885;28;45377;-52
2022/05/29 01:05:15;;;;;;;;;1.50;1.50;;;;;14.53;45.06;101219.38;4997712;28;45506;-52
2022/05/29 01:07:45;;;;;;;;;1.40;1.40;;;;;14.50;45.40;101213.25;4998020;28;45516;-52
2022/05/29 01:10:11;;;;;;;;;0.80;0.80;;;;;14.52;44.63;101209.41;4996593;28;45350;-51
2022/05/29 01:12:48;;;;;;;;;2.50;1.25;;;;;14.53;45.21;101224.88;4996405;28;45450;-50
2022/05/29 01:15:33;;;;;;;;;2.00;0.40;;;;;14.53;45.20;101219.38;4997687;28;45374;-50
2022/05/29 01:18:05;;;;;;;;;1.00;1.00;;;;;14.58;45.61;101220.38;4997709;28;45371;-54
2022/05/29 01:21:09;;;;;;;;;1.00;1.00;;;;;14.36;45.56;101209.75;4997845;28;45304;-49
2022/05/29 01:23:51;;;;;;;;;1.80;1.80;;;;;14.29;46.20;101202.59;4996305;28;45576;-47
2022/05/29 01:26:45;;;;;;;;;1.40;1.40;;;;;14.31;45.97;101208.75;4996181;28;45351;-51
2022/05/29 01:29:17;;;;;;;;;0.60;0.60;;;;;14.06;46.11;101168.16;4993982;28;45530;-49
2022/05/29 01:31:48;;;;;;;;;3.80;2.80;;;;;14.23;46.45;101201.56;4996486;28;45384;-53
2022/05/29 01:34:34;;;;;;;;;3.00;2.00;;;;;14.14;46.78;101201.00;4996234;28;45547;-52
2022/05/29 01:37:08;;;;;;;;;3.00;1.80;;;;;14.07;46.53;101186.41;4980556;28;45684;-50
2022/05/29 01:39:55;;;;;;;;;0.00;0.00;;;;;14.14;47.08;101195.47;4996060;28;46040;-50
2022/05/29 01:42:27;;;;;;;;;2.00;1.00;;;;;14.19;46.51;101192.06;4997386;28;45434;-50
2022/05/29 01:45:14;;;;;;;;;2.00;2.00;;;;;14.18;46.94;101196.72;4996318;28;45486;-49
2022/05/29 01:47:53;;;;;;;;;1.00;1.00;;;;;14.05;47.25;101194.06;4995682;28;45522;-51
2022/05/29 01:50:31;;;;;;;;;1.80;1.80;;;;;14.04;47.58;101179.41;4995928;28;45539;-49
2022/05/29 01:53:16;;;;;;;;;0.60;0.60;;;;;13.88;47.65;101169.78;4981515;28;45494;-48
2022/05/29 01:55:50;;;;;;;;;1.80;1.80;;;;;13.85;48.15;101191.44;4980944;28;45397;-50
2022/05/29 01:58:37;;;;;;;;;1.20;1.20;;;;;13.83;48.07;101186.19;4995639;28;45442;-47
2022/05/29 02:01:03;;;;;;;;;2.60;2.00;;;;;13.56;48.29;101150.50;4972912;28;45525;-49
2022/05/29 02:03:34;;;;;;;;;1.40;1.00;;;;;13.73;48.97;101183.91;4977984;28;45451;-53
2022/05/29 02:06:10;;;;;;;;;1.40;1.40;;;;;13.61;49.59;101178.25;4989660;28;46057;-50
2022/05/29 02:08:43;;;;;;;;;1.60;1.60;;;;;13.40;48.27;101144.41;4993447;28;46147;-51
2022/05/29 02:11:13;;;;;;;;;1.60;1.60;;;;;13.69;49.28;101183.50;4995255;28;45359;-51
2022/05/29 02:13:48;;;;;;;;;2.40;1.40;;;;;13.72;48.76;101192.41;4994134;28;45926;-49
2022/05/29 02:16:21;;;;;;;;;1.80;0.60;;;;;13.54;49.37;101180.19;4992635;28;45365;-46
2022/05/29 02:18:50;;;;;;;;;2.00;1.00;;;;;13.56;49.31;101178.09;4993973;28;45550;-49
2022/05/29 02:21:36;;;;;;;;;1.00;1.00;;;;;13.43;49.48;101154.13;4993322;28;45455;-49
2022/05/29 02:24:04;;;;;;;;;3.00;1.80;;;;;13.37;48.95;101136.59;4964048;28;45402;-50
2022/05/29 02:26:31;;;;;;;;;1.20;1.20;;;;;13.73;49.44;101183.91;4995620;28;45272;-52
2022/05/29 02:29:00;;;;;;;;;1.20;1.20;;;;;13.66;49.56;101177.59;4978593;28;45683;-50
2022/05/29 02:31:36;;;;;;;;;1.60;1.00;;;;;13.70;49.51;101184.34;4979015;28;45368;-49
2022/05/29 02:34:10;;;;;;;;;1.40;1.00;;;;;13.71;49.20;101175.00;4995282;28;45319;-51
2022/05/29 02:36:48;;;;;;;;;1.00;1.00;;;;;13.72;49.74;101175.84;4996322;28;45417;-50
2022/05/29 02:39:24;;;;;;;;;2.00;1.00;;;;;13.73;49.65;101167.38;4995709;28;45760;-51
2022/05/29 02:41:55;;;;;;;;;1.20;1.20;;;;;13.47;49.21;101129.75;4994810;28;45481;-53
2022/05/29 02:44:38;;;;;;;;;1.80;1.00;;;;;13.71;49.45;101166.72;4995091;28;45478;-49
2022/05/29 02:47:21;;;;;;;;;2.00;1.00;;;;;13.34;50.00;101125.97;4995907;28;45394;-53
2022/05/29 02:50:28;;;;;;;;;1.00;1.00;;;;;13.54;50.44;101167.25;4994534;28;46442;-54
2022/05/29 02:52:54;;;;;;;;;1.60;1.60;;;;;13.54;50.33;101164.50;4995421;28;45694;-49
2022/05/29 02:55:21;;;;;;;;;1.00;1.00;;;;;13.47;50.60;101168.34;4994914;28;45335;-49
2022/05/29 02:57:47;;;;;;;;;1.40;1.40;;;;;13.47;50.24;101162.84;4994850;28;45406;-50
2022/05/29 03:00:14;;;;;;;;;2.80;1.00;;;;;13.51;49.95;101158.59;4961746;28;46815;-49
2022/05/29 03:03:03;;;;;;;;;3.00;1.60;;;;;13.46;50.17;101151.00;4994661;28;45401;-52
2022/05/29 03:05:35;;;;;;;;;1.20;1.20;;;;;13.57;50.49;101160.47;4995211;28;45398;-50
2022/05/29 03:08:06;;;;;;;;;4.40;2.20;;;;;13.61;50.31;101153.41;4996217;28;45431;-54
2022/05/29 03:10:34;;;;;;;;;2.20;1.80;;;;;13.65;50.00;101154.69;4995819;28;45365;-50
2022/05/29 03:13:18;;;;;;;;;2.00;2.00;;;;;13.59;50.42;101155.56;4978408;28;45747;-50
2022/05/29 03:16:14;;;;;;;;;4.60;3.80;;;;;13.42;51.02;101158.81;4994729;28;45403;-53
2022/05/29 03:19:01;;;;;;;;;1.00;1.00;;;;;13.44;50.57;101155.00;4997176;28;45506;-50
2022/05/29 03:21:46;;;;;;;;;1.00;1.00;;;;;13.17;50.64;101109.13;4999002;28;45322;-52
2022/05/29 03:24:28;;;;;;;;;2.00;1.00;;;;;13.43;50.67;101148.63;4997809;28;45419;-51
2022/05/29 03:27:12;;;;;;;;;1.60;1.60;;;;;13.21;51.40;101153.63;4999273;28;45340;-53
2022/05/29 03:29:54;;;;;;;;;3.20;1.60;;;;;13.18;51.46;101154.06;4999599;28;45411;-49
2022/05/29 03:32:19;;;;;;;;;1.00;1.00;;;;;13.25;51.43;101168.66;4997938;28;46297;-53
2022/05/29 03:34:45;;;;;;;;;0.00;0.00;;;;;13.22;51.25;101149.78;4997962;28;45414;-55
2022/05/29 03:37:11;;;;;;;;;1.00;1.00;;;;;13.08;51.98;101144.34;4999209;28;45421;-52
2022/05/29 03:39:37;;;;;;;;;2.40;2.40;;;;;13.03;51.89;101152.44;5031511;28;45550;-48
2022/05/29 03:42:02;;;;;;;;;3.00;2.00;;;;;13.01;52.39;101149.03;4998991;28;45606;-50
2022/05/29 03:44:28;;;;;;;;;2.00;2.00;;;;;12.71;52.47;101117.38;4999182;28;45704;-51
2022/05/29 03:46:53;;;;;;;;;4.00;1.00;;;;;12.83;52.69;101147.84;4999096;28;45356;-51
2022/05/29 03:49:20;;;;;;;;;4.00;3.50;;;;;12.82;52.34;101142.56;4999025;28;45335;-49
2022/05/29 03:51:46;;;;;;;;;2.00;2.00;;;;;12.82;52.45;101151.66;4998576;28;46229;-48
2022/05/29 03:54:11;;;;;;;;;1.75;1.75;;;;;12.71;52.46;101109.09;4997482;28;45388;-51
2022/05/29 03:56:37;;;;;;;;;1.00;1.00;;;;;12.82;52.42;101135.13;4998747;28;45405;-51
2022/05/29 03:59:03;;;;;;;;;2.00;2.00;;;;;12.82;52.94;101145.31;4999015;28;45842;-48
2022/05/29 04:01:29;;;;;;;;;2.25;2.25;;;;;12.78;52.68;101149.56;4996866;28;46754;-53
2022/05/29 04:03:54;;;;;;;;;2.25;2.00;;;;;12.81;52.66;101132.59;4997606;28;45402;-48
2022/05/29 04:06:23;;;;;;;;;2.00;1.00;;;;;12.92;52.37;101151.19;5030514;28;45399;-51
2022/05/29 04:14:18;;;;;;;;;1.40;1.00;;;;;13.04;51.89;101142.25;4997344;28;45481;-49
2022/05/29 04:16:43;;;;;;;;;1.00;1.00;;;;;12.64;52.00;101091.75;4998392;28;45351;-51
2022/05/29 04:19:09;;;;;;;;;1.00;1.00;;;;;12.32;52.37;101048.47;4998830;28;45374;-52
2022/05/29 04:21:34;;;;;;;;;2.00;2.00;;;;;12.88;52.18;101134.25;4997912;28;45362;-50
2022/05/29 04:24:00;;;;;;;;;1.75;1.75;;;;;12.11;52.32;101005.53;4996876;28;45628;-50
2022/05/29 04:26:25;;;;;;;;;1.00;1.00;;;;;12.55;52.21;101074.63;4996853;28;45550;-48
2022/05/29 04:28:51;;;;;;;;;1.00;1.00;;;;;12.91;52.54;101140.41;4997319;28;45336;-52
2022/05/29 04:31:16;;;;;;;;;4.75;2.00;;;;;12.87;52.49;101142.75;4997642;28;46318;-51
2022/05/29 04:33:42;;;;;;;;;1.75;1.75;;;;;12.82;52.98;101148.91;4958539;28;45864;-47
2022/05/29 04:36:08;;;;;;;;;2.00;2.00;;;;;12.78;53.12;101146.78;4993602;28;45371;-47
2022/05/29 04:38:33;;;;;;;;;1.75;1.75;;;;;12.89;52.62;101140.63;4978487;28;45552;-53
2022/05/29 04:41:02;;;;;;;;;3.00;3.00;;;;;13.01;52.33;101140.78;4978284;28;45991;-51
2022/05/29 04:43:27;;;;;;;;;2.00;1.00;;;;;12.96;52.34;101141.44;4977177;28;45388;-52
2022/05/29 04:45:54;;;;;;;;;2.75;2.75;;;;;12.93;52.54;101141.88;4978376;28;45291;-53
2022/05/29 04:48:19;;;;;;;;;2.60;2.60;;;;;12.84;52.40;101110.97;4978549;28;45537;-53
2022/05/29 04:50:45;;;;;;;;;5.25;1.75;;;;;13.06;52.37;101143.72;4977946;28;45447;-51
2022/05/29 04:53:11;;;;;;;;;1.25;1.25;;;;;13.09;52.30;101135.03;4978330;28;45415;-49
2022/05/29 04:55:39;;;;;;;;;1.75;1.75;;;;;13.13;52.25;101140.97;4993534;28;45350;-51
2022/05/29 04:58:05;;;;;;;;;1.00;1.00;;;;;12.98;52.17;101113.69;4977006;28;45681;-48
2022/05/29 05:00:30;;;;;;;;;2.00;2.00;;;;;13.08;52.41;101135.25;4992864;28;46356;-53
2022/05/29 05:02:56;;;;;;;;;1.50;1.50;;;;;13.07;52.62;101139.06;4977462;28;45296;-50
2022/05/29 05:05:22;;;;;;;;;1.75;1.75;;;;;13.00;52.20;101106.03;4978162;28;45443;-50
2022/05/29 05:07:47;;;;;;;;;1.00;1.00;;;;;13.27;51.74;101133.44;4977896;28;45295;-51
2022/05/29 05:10:15;;;;;;;;;3.00;3.00;;;;;13.13;52.62;101136.28;4977732;28;46689;-50
2022/05/29 05:12:41;;;;;;;;;2.60;2.00;;;;;12.80;52.99;101098.69;4988756;28;45473;-51
2022/05/29 05:15:07;;;;;;;;;10.00;3.80;;;;;12.70;52.83;101079.06;4996167;28;45474;-49
2022/05/29 05:17:33;;;;;;;;;2.20;2.20;;;;;12.99;52.62;101126.38;4996471;28;45398;-51
2022/05/29 05:19:58;;;;;;;;;4.00;4.00;;;;;13.12;52.28;101134.59;5012329;28;47107;-49
2022/05/29 05:22:24;;;;;;;;;8.00;5.00;;;;;13.19;52.18;101142.84;4996923;28;45424;-50
2022/05/29 05:24:49;;;;;;;;;3.00;2.00;;;;;13.22;52.16;101144.28;4997513;28;45464;-48
2022/05/29 05:27:15;;;;;;;;;3.00;2.50;;;;;13.11;52.40;101138.41;4997423;28;45501;-53
2022/05/29 05:29:42;;;;;;;;;4.00;2.00;;;;;13.04;52.97;101142.25;4997416;28;45454;-50
2022/05/29 05:32:07;;;;;;;;;4.60;2.00;;;;;12.91;52.90;101138.47;4996805;28;45248;-53
2022/05/29 05:34:33;;;;;;;;;6.00;4.00;;;;;12.90;53.50;101141.47;4997116;28;45267;-55
2022/05/29 05:36:58;;;;;;;;;4.50;2.00;;;;;12.60;52.83;101072.06;4995754;28;45390;-49
2022/05/29 05:39:24;;;;;;;;;2.25;2.25;;;;;13.05;52.67;101139.28;4979084;28;47574;-52
2022/05/29 05:41:50;;;;;;;;;3.25;2.25;;;;;12.87;52.14;101094.00;4995559;28;45428;-51
2022/05/29 05:44:15;;;;;;;;;3.00;3.00;;;;;13.13;52.27;101133.53;4996977;28;45448;-50
2022/05/29 05:46:49;;;;;;;;;3.75;2.00;;;;;13.18;52.27;101118.25;4996058;28;45927;-48
2022/05/29 05:49:18;;;;;;;;;2.00;2.00;;;;;13.27;52.05;101145.34;5028322;28;47793;-49
2022/05/29 05:51:44;;;;;;;;;2.00;2.00;;;;;13.20;52.14;101125.22;4996804;28;45481;-51
2022/05/29 05:54:10;;;;;;;;;5.20;2.80;;;;;13.19;51.65;101122.69;4995729;28;45339;-50
2022/05/29 05:56:36;;;;;;;;;2.20;2.20;;;;;13.22;51.31;101120.34;4995926;28;45555;-48
2022/05/29 05:59:01;;;;;;;;;3.25;2.00;;;;;13.32;51.56;101144.66;4996770;28;46064;-52
2022/05/29 06:01:27;;;;;;;;;2.00;2.00;;;;;13.39;51.36;101139.09;4995299;28;45352;-53
2022/05/29 06:03:53;;;;;;;;;3.00;2.00;;;;;13.35;51.36;101144.22;4995680;28;45363;-51
2022/05/29 06:06:18;;;;;;;;;2.50;2.50;;;;;13.40;51.37;101144.41;5012401;28;45237;-48
2022/05/29 06:08:44;;;;;;;;;3.00;1.75;;;;;13.33;51.26;101134.50;4972943;28;45945;-49
2022/05/29 06:11:09;;;;;;;;;2.00;2.00;;;;;13.45;50.91;101140.13;4987216;28;46211;-52
2022/05/29 06:13:35;;;;;;;;;3.00;3.00;;;;;13.22;51.52;101119.47;4995185;28;45325;-50
2022/05/29 06:16:02;;;;;;;;;4.80;3.60;;;;;13.18;51.77;101123.75;4995958;28;45640;-50
2022/05/29 06:18:28;;;;;;;;;1.40;1.40;;;;;13.20;51.54;101119.72;5028584;28;47019;-49
2022/05/29 06:20:58;;;;;;;;;2.50;1.50;;;;;13.36;51.48;101126.63;4996726;28;45465;-50
2022/05/29 06:23:23;;;;;;;;;1.40;1.40;;;;;13.45;50.98;101124.44;4996155;28;45396;-49
2022/05/29 06:25:49;;;;;;;;;0.50;0.50;;;;;12.70;51.45;101023.97;4997090;28;45236;-51
2022/05/29 06:28:14;;;;;;;;;1.50;1.00;;;;;13.20;51.29;101119.72;4995503;28;46476;-49
2022/05/29 06:30:40;;;;;;;;;1.50;1.50;;;;;13.28;51.54;101124.97;4996514;28;45338;-50
2022/05/29 06:33:06;;;;;;;;;1.80;1.60;;;;;13.33;51.24;101121.53;4995234;28;45472;-49
2022/05/29 06:35:31;;;;;;;;;1.00;1.00;;;;;13.51;50.81;101128.25;5028431;28;45348;-48
2022/05/29 06:37:57;;;;;;;;;1.50;1.00;;;;;13.55;50.31;101132.25;4996299;28;45935;-49
2022/05/29 06:40:22;;;;;;;;;2.00;2.00;;;;;13.47;50.36;101125.09;4996272;28;45394;-54
2022/05/29 06:42:48;;;;;;;;;1.00;1.00;;;;;13.58;50.26;101137.31;4996420;28;45417;-55
2022/05/29 06:45:13;;;;;;;;;2.25;2.25;;;;;13.76;50.44;101133.81;4995278;28;45396;-54
2022/05/29 06:47:39;;;;;;;;;1.75;1.75;;;;;13.94;49.59;101134.94;4996130;28;45839;-53
2022/05/29 06:50:06;;;;;;;;;1.25;1.25;;;;;13.90;49.63;101142.84;4994973;28;45437;-52
2022/05/29 06:52:31;;;;;;;;;0.00;0.00;;;;;13.69;49.82;101135.75;4995603;28;45350;-53
2022/05/29 06:54:58;;;;;;;;;1.00;1.00;;;;;13.40;49.95;101082.91;4995098;28;45618;-52
2022/05/29 06:57:43;;;;;;;;;1.80;1.80;;;;;13.78;49.13;101133.59;4994619;28;45860;-53
2022/05/29 07:08:31;;;;;;;;;3.00;3.00;;;;;13.30;49.94;101088.91;4994577;28;45612;-57
2022/05/29 07:11:00;;;;;;;;;2.20;2.20;;;;;13.53;49.87;101128.88;4992218;28;46020;-53
2022/05/29 07:13:26;;;;;;;;;1.40;1.00;;;;;13.63;49.33;101123.72;4994908;28;45419;-55
2022/05/29 07:15:52;;;;;;;;;2.80;2.00;;;;;13.62;49.28;101127.56;4993665;28;45619;-58
2022/05/29 07:18:17;;;;;;;;;2.00;2.00;;;;;13.33;48.32;101090.38;4994202;28;45515;-52
2022/05/29 07:20:43;;;;;;;;;2.25;2.00;;;;;13.37;48.80;101070.41;4995354;28;45402;-50
2022/05/29 07:23:09;;;;;;;;;2.00;2.00;;;;;13.76;48.22;101117.25;4995594;28;45466;-54
2022/05/29 07:25:38;;;;;;;;;5.00;2.60;;;;;13.91;47.93;101130.72;4995784;28;45477;-55
2022/05/29 07:28:05;;;;;;;;;1.60;1.60;;;;;13.94;47.63;101124.72;4995374;28;46030;-51
2022/05/29 07:30:32;;;;;;;;;3.00;1.00;;;;;14.06;46.57;101119.34;4995146;28;45938;-53
2022/05/29 07:32:59;;;;;;;;;3.00;1.00;;;;;14.21;46.58;101120.91;4995129;28;45337;-56
2022/05/29 07:35:24;;;;;;;;;1.60;1.60;;;;;14.02;46.13;101062.91;4994309;28;45441;-54
2022/05/29 07:37:50;;;;;;;;;2.50;1.25;;;;;14.10;46.02;101083.84;4975738;28;47301;-53
2022/05/29 07:40:15;;;;;;;;;1.75;1.75;;;;;14.31;45.33;101126.72;5009693;28;45399;-51
2022/05/29 07:45:25;;;;;;;;;1.80;1.00;;;;;14.43;45.11;101107.53;4995713;28;45397;-50
2022/05/29 07:47:50;;;;;;;;;1.25;1.25;;;;;14.52;44.43;101118.25;4994839;28;45690;-52
2022/05/29 07:50:18;;;;;;;;;1.00;1.00;;;;;14.60;44.56;101112.41;4995477;28;45350;-55
2022/05/29 07:52:45;;;;;;;;;2.00;1.00;;;;;14.71;44.28;101114.41;4993911;28;45721;-54
2022/05/29 07:55:10;;;;;;;;;2.00;1.60;;;;;14.74;44.32;101116.75;4994207;28;45634;-54
2022/05/29 07:57:36;;;;;;;;;0.75;0.75;;;;;14.78;43.18;101122.66;4995149;28;45665;-49
2022/05/29 08:00:03;;;;;;;;;1.00;1.00;;;;;14.31;43.10;101062.41;4994772;28;45421;-53
2022/05/29 08:02:34;;;;;;;;;0.20;0.20;;;;;14.47;44.31;101103.19;4974313;28;45463;-55
2022/05/29 08:05:00;;;;;;;;;0.80;0.80;;;;;14.53;43.09;101095.94;4991877;28;45388;-55
2022/05/29 08:07:26;;;;;;;;;1.00;1.00;;;;;14.43;42.77;101071.63;4997848;28;46127;-52
2022/05/29 08:09:52;;;;;;;;;0.00;0.00;;;;;14.60;42.00;101104.13;4998532;28;45500;-53
2022/05/29 08:12:17;;;;;;;;;0.75;0.75;;;;;14.67;41.60;101101.31;4998418;28;45348;-52
2022/05/29 08:14:42;;;;;;;;;0.00;0.00;;;;;14.81;42.08;101102.84;4997930;28;45401;-51
2022/05/29 08:17:09;;;;;;;;;1.00;0.00;;;;;14.86;41.43;101104.91;4996459;28;47620;-53
2022/05/29 08:19:36;;;;;;;;;1.60;1.20;;;;;14.78;41.63;101100.53;4998643;28;45469;-53
2022/05/29 08:22:02;;;;;;;;;2.80;1.00;;;;;14.57;42.37;101054.88;4997158;28;45313;-50
2022/05/29 08:32:39;;;;;;;;;3.20;2.00;;;;;14.79;42.26;101091.19;4997222;28;45419;-53
2022/05/29 08:35:04;;;;;;;;;3.75;2.50;;;;;14.86;42.62;101097.50;4998409;28;45579;-55
2022/05/29 08:37:30;;;;;;;;;2.00;1.00;;;;;14.68;41.60;101062.38;4949732;28;45980;-55
2022/05/29 08:39:55;;;;;;;;;2.25;1.25;;;;;14.96;42.29;101088.66;4975350;28;45454;-56
2022/05/29 08:42:21;;;;;;;;;1.00;1.00;;;;;15.17;41.86;101081.75;4977006;28;45433;-57
2022/05/29 08:44:48;;;;;;;;;3.25;1.00;;;;;15.07;41.61;101045.53;5009054;28;45679;-53
2022/05/29 08:47:15;;;;;;;;;1.00;1.00;;;;;15.25;41.64;101082.50;4993547;28;45569;-60
2022/05/29 08:49:43;;;;;;;;;1.00;1.00;;;;;15.15;42.15;101060.94;5004248;28;45509;-60
2022/05/29 08:52:46;;;;;;;;;2.20;1.00;;;;;15.34;41.75;101085.78;5013721;28;45735;-56
2022/05/29 08:55:15;;;;;;;;;0.00;0.00;;;;;15.23;41.65;101088.28;4988644;28;45592;-56
2022/05/29 08:58:06;;;;;;;;;1.00;1.00;;;;;15.13;41.49;101077.78;4993243;28;47071;-56
2022/05/29 09:00:43;;;;;;;;;1.40;1.40;;;;;14.98;41.07;101064.38;4992121;28;45571;-59
2022/05/29 09:03:30;;;;;;;;;1.40;1.40;;;;;15.00;41.07;101077.97;4992018;28;45537;-59
2022/05/29 09:05:58;;;;;;;;;0.00;0.00;;;;;14.95;41.10;101073.16;4983370;28;45532;-59
2022/05/29 09:08:46;;;;;;;;;1.00;1.00;;;;;15.06;41.37;101073.41;4954130;28;46534;-58
2022/05/29 09:11:16;;;;;;;;;1.00;1.00;;;;;14.80;41.36;101058.88;4990491;28;45390;-58
2022/05/29 09:14:07;;;;;;;;;0.80;0.80;;;;;14.67;41.92;101030.31;4980643;28;45458;-58
2022/05/29 09:16:40;;;;;;;;;2.60;1.80;;;;;14.86;41.91;101067.09;4993185;28;45612;-54
2022/05/29 09:19:26;;;;;;;;;2.80;1.00;;;;;14.94;42.18;101065.91;4991851;28;46335;-54
2022/05/29 09:22:13;;;;;;;;;0.60;0.60;;;;;14.92;40.68;101054.25;4990607;28;45471;-60
2022/05/29 09:24:51;;;;;;;;;2.00;1.00;;;;;14.95;41.00;101052.94;4992028;28;45798;-58
2022/05/29 09:27:17;;;;;;;;;1.00;1.00;;;;;15.03;41.29;101056.22;4991932;28;45539;-57
2022/05/29 09:29:43;;;;;;;;;0.75;0.75;;;;;15.13;40.35;101052.91;4992555;28;47463;-59
2022/05/29 09:35:52;;;;;;;;;3.40;0.00;;;;;15.25;39.33;101043.78;4955566;28;46075;-50
2022/05/29 09:38:30;;;;;;;;;0.60;0.60;;;;;15.42;39.11;101046.72;5333547;22;46212;-48
2022/05/29 09:41:04;;;;;;;;;2.00;1.00;;;;;15.35;38.54;101002.56;4953402;28;45884;-52
2022/05/29 09:43:30;;;;;;;;;1.40;0.60;;;;;15.67;37.58;101037.38;4968532;28;46040;-54
2022/05/29 09:45:55;;;;;;;;;2.25;1.00;;;;;15.67;38.11;101037.38;4988041;28;45540;-51
2022/05/29 09:51:18;;;;;;;;;1.00;1.00;;;;;16.03;36.99;101032.72;4971077;28;45488;-55
2022/05/29 09:53:47;;;;;;;;;0.60;0.60;;;;;15.93;36.93;101000.13;4971914;28;45493;-50
2022/05/29 09:56:13;;;;;;;;;1.00;1.00;;;;;16.20;37.65;101032.84;4989978;28;45799;-53
2022/05/29 09:58:46;;;;;;;;;1.00;1.00;;;;;15.76;37.41;100966.78;4996655;28;45477;-49
2022/05/29 10:01:12;;;;;;;;;2.00;2.00;;;;;16.12;37.80;101031.25;4986992;28;46636;-53
2022/05/29 10:03:49;;;;;;;;;2.00;1.00;;;;;16.08;38.42;101021.78;4971482;28;45759;-54
2022/05/29 10:06:14;;;;;;;;;3.40;2.00;;;;;16.05;38.11;101036.09;5005297;28;45634;-52
2022/05/29 10:08:40;;;;;;;;;0.75;0.75;;;;;16.09;38.13;101028.13;4989414;28;45468;-53
2022/05/29 10:11:15;;;;;;;;;1.50;0.75;;;;;15.99;38.07;101021.31;4982944;28;45962;-53
2022/05/29 10:13:41;;;;;;;;;1.40;1.40;;;;;15.80;37.83;100978.19;4954921;28;45665;-49
2022/05/29 10:16:08;;;;;;;;;1.40;1.40;;;;;15.99;38.41;100996.38;4966291;28;45436;-54
2022/05/29 10:18:38;;;;;;;;;0.60;0.00;;;;;16.21;38.13;101017.03;4971760;28;45513;-51
2022/05/29 10:21:23;;;;;;;;;1.20;1.20;;;;;16.06;38.70;100993.47;4971154;28;45763;-54
2022/05/29 10:24:14;;;;;;;;;1.00;1.00;;;;;16.24;38.47;101011.03;4955573;28;45543;-55
2022/05/29 10:26:40;;;;;;;;;1.40;1.00;;;;;16.28;38.37;101009.47;4970592;28;45428;-53
2022/05/29 10:29:16;;;;;;;;;1.75;1.75;;;;;16.20;38.16;100988.53;4970760;28;45478;-52
2022/05/29 10:31:42;;;;;;;;;1.00;1.00;;;;;16.20;38.67;100988.53;4957220;28;46031;-53
2022/05/29 10:34:37;;;;;;;;;2.75;1.00;;;;;16.43;38.56;101019.19;4970682;28;45757;-52
2022/05/29 10:37:36;;;;;;;;;2.40;1.00;;;;;16.47;37.90;101018.44;4937224;28;45430;-55
2022/05/29 10:40:31;;;;;;;;;2.60;2.00;;;;;16.54;37.37;101007.22;4952854;28;45404;-54
2022/05/29 10:43:01;;;;;;;;;1.40;1.40;;;;;16.67;36.85;100995.84;4951330;28;45574;-51
2022/05/29 10:45:28;;;;;;;;;1.80;1.80;;;;;16.81;36.93;100995.53;4990550;28;45507;-53
2022/05/29 10:48:37;;;;;;;;;1.20;1.20;;;;;16.96;35.88;101002.50;4977641;28;45946;-54
2022/05/29 10:51:12;;;;;;;;;1.80;1.00;;;;;17.03;36.28;100995.72;4958336;28;45847;-52
2022/05/29 10:54:01;;;;;;;;;1.20;1.00;;;;;17.19;36.31;100988.50;4982826;28;46631;-52
2022/05/29 10:56:45;;;;;;;;;0.40;0.40;;;;;17.28;35.37;100988.13;4991175;28;45498;-56
2022/05/29 10:59:30;;;;;;;;;5.20;5.00;;;;;17.02;35.09;100959.94;4991503;28;45543;-56
2022/05/29 11:05:06;;;;;;;;;1.00;1.00;;;;;17.30;35.07;100974.81;4970604;28;45847;-55
2022/05/29 11:07:38;;;;;;;;;1.60;1.60;;;;;17.29;34.36;100985.06;4970877;28;45665;-58
2022/05/29 11:10:12;;;;;;;;;0.80;0.80;;;;;17.25;35.18;100981.13;4972017;28;45446;-55
2022/05/29 11:12:46;;;;;;;;;0.60;0.60;;;;;17.28;34.85;100985.34;4972678;28;45450;-53
2022/05/29 11:15:32;;;;;;;;;1.20;1.00;;;;;17.13;35.83;100977.59;4976488;28;47436;-54
2022/05/29 11:18:20;;;;;;;;;1.00;1.00;;;;;17.28;35.61;100980.63;4972064;28;45476;-53
2022/05/29 11:21:07;;;;;;;;;1.80;1.80;;;;;17.47;35.37;100972.06;4971591;28;45438;-54
2022/05/29 11:24:12;;;;;;;;;1.00;1.00;;;;;17.59;35.13;100938.66;4971150;28;45446;-51
2022/05/29 11:27:13;;;;;;;;;2.80;1.00;;;;;17.81;34.76;100958.13;4951884;28;45772;-55
2022/05/29 11:29:59;;;;;;;;;1.20;1.20;;;;;17.79;35.16;100952.00;4948814;28;45865;-56
2022/05/29 11:32:46;;;;;;;;;1.40;1.40;;;;;17.52;35.21;100918.56;4990312;28;45501;-53
2022/05/29 11:35:41;;;;;;;;;1.00;1.00;;;;;17.29;35.06;100904.63;5023627;28;45417;-54
2022/05/29 11:38:09;;;;;;;;;1.00;1.00;;;;;17.41;35.49;100950.88;5007936;28;46911;-55
2022/05/29 11:40:37;;;;;;;;;0.60;0.60;;;;;17.14;35.36;100948.75;4973944;28;45691;-53
2022/05/29 11:43:14;;;;;;;;;2.00;2.00;;;;;16.80;35.98;100916.25;4935927;28;45570;-53
2022/05/29 11:51:50;;;;;;;;;1.00;1.00;;;;;16.98;35.73;100931.84;4972501;28;45440;-51
2022/05/29 11:54:49;;;;;;;;;1.40;1.40;;;;;17.05;35.51;100920.59;4970888;28;45838;-53
2022/05/29 11:57:31;;;;;;;;;2.00;2.00;;;;;16.91;35.31;100878.47;4974133;28;45641;-49
2022/05/29 12:00:09;;;;;;;;;0.80;0.80;;;;;17.28;34.15;100914.06;4973461;28;45874;-52
2022/05/29 12:02:58;;;;;;;;;1.60;1.00;;;;;17.43;34.21;100913.47;4972730;28;45728;-53
2022/05/29 12:05:46;;;;;;;;;0.80;0.80;;;;;17.48;33.89;100902.44;4961123;28;45382;-53
2022/05/29 12:08:14;;;;;;;;;2.60;1.40;;;;;17.60;33.52;100898.69;4993514;28;45412;-55
2022/05/29 12:10:54;;;;;;;;;3.40;2.40;;;;;17.96;33.78;100893.66;4994098;28;45821;-56
2022/05/29 12:13:20;;;;;;;;;1.60;1.60;;;;;18.18;32.93;100892.00;4989965;28;45822;-52
2022/05/29 12:15:49;;;;;;;;;2.60;2.60;;;;;18.35;32.38;100898.28;4981512;28;45459;-54
2022/05/29 12:18:18;;;;;;;;;2.60;2.60;;;;;18.43;32.78;100885.88;4989716;28;45438;-51
2022/05/29 12:20:49;;;;;;;;;1.00;1.00;;;;;18.56;31.98;100888.25;4971463;28;45835;-48
2022/05/29 12:23:24;;;;;;;;;1.00;1.00;;;;;18.82;30.70;100884.84;4973186;28;45513;-53
2022/05/29 12:26:08;;;;;;;;;1.60;1.60;;;;;18.89;30.99;100876.31;4988769;28;45539;-51